createdAt,value
2023-02-14T00:02:51.871Z,7.7
2023-02-14T00:07:57.792Z,7.7
2023-02-14T00:13:03.826Z,7.7
2023-02-14T00:18:09.971Z,7.6
2023-02-14T00:23:15.941Z,7.6
2023-02-14T00:28:22.009Z,7.6
2023-02-14T00:33:28.087Z,7.6
2023-02-14T00:38:34.123Z,7.6
2023-02-14T00:43:40.159Z,7.6
2023-02-14T00:48:46.240Z,7.6
2023-02-14T00:53:52.285Z,7.6
2023-02-14T00:58:58.327Z,7.6
2023-02-14T01:04:04.424Z,7.6
2023-02-14T01:09:10.439Z,7.6
2023-02-14T01:14:16.488Z,7.6
2023-02-14T01:19:22.562Z,7.6
2023-02-14T01:24:28.593Z,7.6
2023-02-14T01:29:34.663Z,7.5
2023-02-14T01:34:40.735Z,7.5
2023-02-14T01:39:46.764Z,7.4
2023-02-14T01:44:52.819Z,7.6
2023-02-14T01:49:58.909Z,7.5
2023-02-14T01:55:04.937Z,7.5
2023-02-14T02:00:10.989Z,7.5
2023-02-14T02:05:17.083Z,7.5
2023-02-14T02:10:23.123Z,7.5
2023-02-14T02:15:29.172Z,7.5
2023-02-14T02:20:35.250Z,7.5
2023-02-14T02:25:41.272Z,7.5
2023-02-14T02:30:47.456Z,7.5
2023-02-14T02:35:53.412Z,7.5
2023-02-14T02:40:59.789Z,7.5
2023-02-14T02:46:05.563Z,7.5
2023-02-14T02:51:11.639Z,7.3
2023-02-14T02:56:17.622Z,7.3
2023-02-14T03:01:23.699Z,7.3
2023-02-14T03:06:29.735Z,7.3
2023-02-14T03:11:35.770Z,7.3
2023-02-14T03:16:41.849Z,7.3
2023-02-14T03:21:47.923Z,7.4
2023-02-14T03:26:53.948Z,7.4
2023-02-14T03:32:00.132Z,7.4
2023-02-14T03:37:06.077Z,7.4
2023-02-14T03:42:12.133Z,7.4
2023-02-14T03:47:18.191Z,7.4
2023-02-14T03:52:24.251Z,7.4
2023-02-14T03:57:30.273Z,7.4
2023-02-14T04:02:36.337Z,7.3
2023-02-14T04:07:42.436Z,7.3
2023-02-14T04:12:48.454Z,7.3
2023-02-14T04:17:54.510Z,7.3
2023-02-14T04:23:03.224Z,7.3
2023-02-14T04:28:06.634Z,7.3
2023-02-14T04:33:12.684Z,7.3
2023-02-14T04:38:18.756Z,7.2
2023-02-14T04:43:24.797Z,7.2
2023-02-14T04:48:30.839Z,7.2
2023-02-14T04:53:36.913Z,7.2
2023-02-14T04:58:42.948Z,7.2
2023-02-14T05:03:49.023Z,6.9
2023-02-14T05:08:55.102Z,7.1
2023-02-14T05:14:01.152Z,6.9
2023-02-14T05:19:07.169Z,6.5
2023-02-14T05:24:13.243Z,6.6
2023-02-14T05:29:19.253Z,6.9
2023-02-14T05:34:25.333Z,7
2023-02-14T05:39:31.422Z,7.1
2023-02-14T05:44:37.437Z,7.1
2023-02-14T05:49:43.491Z,7.2
2023-02-14T05:54:49.595Z,7.4
2023-02-14T05:59:55.609Z,7.4
2023-02-14T06:05:01.804Z,8.1
2023-02-14T06:10:07.756Z,8.4
2023-02-14T06:15:13.781Z,7.9
2023-02-14T06:20:19.841Z,7.6
2023-02-14T06:25:25.906Z,7.8
2023-02-14T06:30:32.178Z,7.9
2023-02-14T06:35:37.997Z,7.8
2023-02-14T06:40:44.097Z,7.6
2023-02-14T06:45:50.183Z,7.7
2023-02-14T06:56:04.129Z,7.8
2023-02-14T07:01:10.187Z,7.7
2023-02-14T07:06:16.226Z,7.6
2023-02-14T07:11:22.304Z,7.6
2023-02-14T07:16:28.351Z,7.7
2023-02-14T07:21:34.375Z,7.5
2023-02-14T07:26:40.454Z,7.5
2023-02-14T07:31:46.740Z,7.5
2023-02-14T07:36:52.578Z,7.5
2023-02-14T07:41:58.628Z,7.6
2023-02-14T07:47:04.676Z,7.6
2023-02-14T07:52:10.739Z,7.6
2023-02-14T07:57:16.926Z,7.6
2023-02-14T08:02:22.842Z,7.6
2023-02-14T08:07:29.162Z,7.6
2023-02-14T08:12:34.990Z,7.6
2023-02-14T08:17:41.007Z,7.6
2023-02-14T08:22:47.076Z,7.6
2023-02-14T08:27:53.154Z,7.6
2023-02-14T08:32:59.195Z,7.6
2023-02-14T08:38:05.250Z,7.7
2023-02-14T08:43:11.386Z,7.7
2023-02-14T08:48:17.346Z,7.7
2023-02-14T08:53:23.419Z,7.7
2023-02-14T08:58:30.513Z,7.5
2023-02-14T09:03:38.162Z,7.7
2023-02-14T09:08:41.590Z,7.8
2023-02-14T09:13:47.724Z,7.6
2023-02-14T09:18:53.705Z,7.7
2023-02-14T09:23:59.758Z,7.7
2023-02-14T09:29:05.827Z,7.8
2023-02-14T09:34:11.876Z,7.8
2023-02-14T09:39:17.919Z,7.9
2023-02-14T09:44:23.989Z,7.9
2023-02-14T09:49:30.195Z,7.9
2023-02-14T09:54:36.091Z,8
2023-02-14T09:59:42.184Z,8
2023-02-14T10:04:48.192Z,8
2023-02-14T10:09:54.298Z,7.9
2023-02-14T10:15:00.339Z,8
2023-02-14T10:20:06.354Z,8
2023-02-14T10:25:12.420Z,8
2023-02-14T10:30:18.646Z,8
2023-02-14T10:35:24.505Z,8
2023-02-14T10:40:30.576Z,8.1
2023-02-14T10:45:36.709Z,8.1
2023-02-14T10:50:42.714Z,8.1
2023-02-14T10:55:48.729Z,8.1
2023-02-14T11:00:54.881Z,8.1
2023-02-14T11:06:00.876Z,8.1
2023-02-14T11:11:06.928Z,8.2
2023-02-14T11:16:13.010Z,8.2
2023-02-14T11:21:19.159Z,8.2
2023-02-14T11:26:25.088Z,8.4
2023-02-14T11:31:31.345Z,8.4
2023-02-14T11:36:37.201Z,8.4
2023-02-14T11:41:43.259Z,8.5
2023-02-14T11:46:53.402Z,8.5
2023-02-14T11:51:56.489Z,8.4
2023-02-14T11:57:02.554Z,8.4
2023-02-14T12:02:08.698Z,8.4
2023-02-14T12:07:14.667Z,8.3
2023-02-14T12:12:20.698Z,8.5
2023-02-14T12:17:26.829Z,8.5
2023-02-14T12:22:32.817Z,8.5
2023-02-14T12:27:38.924Z,8.5
2023-02-14T12:32:44.959Z,8.7
2023-02-14T12:42:58.951Z,8.7
2023-02-14T12:48:05.019Z,8.8
2023-02-14T12:53:11.054Z,9
2023-02-14T12:58:17.090Z,9
2023-02-14T13:03:23.246Z,9
2023-02-14T13:08:29.366Z,9
2023-02-14T13:13:35.312Z,9
2023-02-14T13:18:41.350Z,9
2023-02-14T13:34:03.325Z,9.1
2023-02-14T13:39:09.304Z,9.1
2023-02-14T13:44:15.336Z,9.1
2023-02-14T13:49:21.426Z,9.1
2023-02-14T13:54:27.465Z,9.1
2023-02-14T13:59:33.509Z,9.2
2023-02-14T14:04:39.607Z,9.1
2023-02-14T14:09:45.631Z,9.1
2023-02-14T14:14:51.686Z,9.1
2023-02-14T14:19:57.784Z,9.1
2023-02-14T14:25:03.803Z,9.1
2023-02-14T14:30:09.888Z,9.1
2023-02-14T14:35:15.933Z,8.8
2023-02-14T14:40:21.957Z,8.8
2023-02-14T14:45:28.114Z,8.8
2023-02-14T14:50:34.159Z,8.8
2023-02-14T14:55:40.132Z,8.8
2023-02-14T15:00:46.278Z,8.8
2023-02-14T15:05:52.337Z,8.8
2023-02-14T15:10:58.490Z,8.8
2023-02-14T15:16:04.368Z,8.7
2023-02-14T15:21:10.452Z,8.9
2023-02-14T15:26:16.489Z,8.8
2023-02-14T15:31:22.628Z,8.8
2023-02-14T15:36:28.639Z,8.8
2023-02-14T15:41:34.656Z,8.8
2023-02-14T15:46:40.702Z,9
2023-02-14T15:51:46.790Z,9
2023-02-14T15:56:52.813Z,9
2023-02-14T16:01:58.864Z,9
2023-02-14T16:07:04.948Z,9
2023-02-14T16:12:10.976Z,9
2023-02-14T16:17:17.049Z,9
2023-02-14T16:22:23.136Z,8.9
2023-02-14T16:27:29.148Z,8.8
2023-02-14T16:32:35.392Z,8.8
2023-02-14T16:37:41.290Z,8.9
2023-02-14T16:42:47.323Z,8.9
2023-02-14T16:47:53.380Z,8.8
2023-02-14T16:52:59.445Z,8.8
2023-02-14T16:58:05.481Z,8.8
2023-02-14T17:03:11.708Z,8.8
2023-02-14T17:08:17.641Z,8.8
2023-02-14T17:13:23.648Z,8.8
2023-02-14T17:18:29.708Z,8.8
2023-02-14T17:23:35.789Z,8.7
2023-02-14T17:28:41.839Z,8.7
2023-02-14T17:33:47.905Z,8.6
2023-02-14T17:38:54.003Z,8.6
2023-02-14T17:43:59.995Z,8.7
2023-02-14T17:49:06.069Z,8.7
2023-02-14T17:54:12.139Z,8.7
2023-02-14T17:59:18.171Z,8.5
2023-02-14T18:04:24.240Z,8.5
2023-02-14T18:09:30.307Z,8.6
2023-02-14T18:14:36.344Z,8.6
2023-02-14T18:19:42.392Z,8.6
2023-02-14T18:24:48.467Z,8.6
2023-02-14T18:29:54.499Z,8.5
2023-02-14T18:35:00.557Z,8.5
2023-02-14T18:40:06.650Z,8.5
2023-02-14T18:45:12.697Z,8.4
2023-02-14T18:50:18.736Z,8.4
2023-02-14T18:55:24.816Z,8.4
2023-02-14T19:00:30.878Z,8.4
2023-02-14T19:05:37.116Z,8.4
2023-02-14T19:10:42.982Z,8.4
2023-02-14T19:15:49.018Z,8.4
2023-02-14T19:20:55.051Z,8.4
2023-02-14T19:26:01.131Z,8.4
2023-02-14T19:31:07.244Z,8.4
2023-02-14T19:36:13.227Z,8.2
2023-02-14T19:41:19.309Z,8.2
2023-02-14T19:46:25.360Z,8.2
2023-02-14T19:51:31.402Z,8.2
2023-02-14T19:56:37.496Z,8.3
2023-02-14T20:01:43.572Z,8.3
2023-02-14T20:06:49.573Z,8.3
2023-02-14T20:11:55.708Z,8.3
2023-02-14T20:17:02.835Z,8.3
2023-02-14T20:22:08.849Z,8.2
2023-02-14T20:27:14.957Z,8.2
2023-02-14T20:32:20.970Z,8.2
2023-02-14T20:37:27.023Z,8.2
2023-02-14T20:42:33.128Z,8.2
2023-02-14T20:47:39.175Z,8.1
2023-02-14T20:52:45.230Z,8.1
2023-02-14T20:57:51.267Z,8.1
2023-02-14T21:02:57.336Z,8.1
2023-02-14T21:08:03.373Z,8.1
2023-02-14T21:13:09.467Z,8.1
2023-02-14T21:18:15.485Z,8.1
2023-02-14T21:23:21.534Z,8.1
2023-02-14T21:28:27.636Z,8.1
2023-02-14T21:33:33.709Z,8.1
2023-02-14T21:38:39.728Z,8.2
2023-02-14T21:43:45.793Z,8.2
2023-02-14T21:48:51.824Z,8
2023-02-14T21:53:57.896Z,8
2023-02-14T21:59:03.978Z,8
2023-02-14T22:04:09.982Z,8
2023-02-14T22:09:16.057Z,7.9
2023-02-14T22:14:22.127Z,7.9
2023-02-14T22:19:28.204Z,7.9
2023-02-14T22:24:34.216Z,7.8
2023-02-14T22:29:40.295Z,7.8
2023-02-14T22:34:46.343Z,7.8
2023-02-14T22:39:52.396Z,7.8
2023-02-14T22:44:58.484Z,7.9
2023-02-14T22:50:04.506Z,7.9
2023-02-14T22:55:10.568Z,7.9
2023-02-14T23:00:16.662Z,7.9
2023-02-14T23:05:22.660Z,7.9
2023-02-14T23:10:28.704Z,7.9
2023-02-14T23:15:34.793Z,7.9
2023-02-14T23:20:40.821Z,7.9
2023-02-14T23:25:46.917Z,7.7
2023-02-14T23:30:52.991Z,7.7
2023-02-14T23:35:59.123Z,7.8
2023-02-14T23:41:05.058Z,7.8
2023-02-14T23:46:11.260Z,7.8
2023-02-14T23:51:17.187Z,7.8
2023-02-14T23:56:23.222Z,7.8
